createdAt,value
2018-02-06T00:00:19.996Z,27.05
2018-02-06T00:00:43.795Z,25.00
2018-02-06T00:01:07.536Z,25.33
2018-02-06T00:01:31.309Z,23.80
2018-02-06T00:01:55.399Z,24.77
2018-02-06T00:02:19.159Z,28.83
2018-02-06T00:02:42.622Z,28.33
2018-02-06T00:03:06.397Z,26.92
2018-02-06T00:03:30.180Z,25.80
2018-02-06T00:03:53.925Z,24.52
2018-02-06T00:04:17.948Z,27.14
2018-02-06T00:04:41.992Z,25.98
2018-02-06T00:05:05.436Z,24.60
2018-02-06T00:05:29.203Z,25.92
2018-02-06T00:05:53.079Z,24.98
2018-02-06T00:06:16.904Z,24.75
2018-02-06T00:06:40.674Z,27.85
2018-02-06T00:07:04.705Z,27.87
2018-02-06T00:07:28.517Z,26.70
2018-02-06T00:07:52.611Z,24.75
2018-02-06T00:08:16.385Z,23.38
2018-02-06T00:08:39.846Z,24.73
2018-02-06T00:09:03.410Z,26.00
2018-02-06T00:09:26.871Z,26.97
2018-02-06T00:09:50.640Z,26.10
2018-02-06T00:10:14.437Z,24.35
2018-02-06T00:10:38.461Z,24.50
2018-02-06T00:11:02.973Z,24.45
2018-02-06T00:11:26.477Z,24.37
2018-02-06T00:11:50.226Z,25.12
2018-02-06T00:12:14.024Z,25.23
2018-02-06T00:12:37.846Z,26.90
2018-02-06T00:13:01.890Z,25.50
2018-02-06T00:13:25.387Z,25.70
2018-02-06T00:13:49.199Z,23.80
2018-02-06T00:14:12.949Z,22.25
2018-02-06T00:14:36.704Z,26.65
2018-02-06T00:15:00.164Z,26.97
2018-02-06T00:15:23.906Z,25.33
2018-02-06T00:15:47.739Z,24.65
2018-02-06T00:16:11.674Z,24.92
2018-02-06T00:16:35.521Z,25.80
2018-02-06T00:16:59.291Z,26.08
2018-02-06T00:17:23.355Z,28.02
2018-02-06T00:17:46.823Z,26.80
2018-02-06T00:18:10.632Z,25.10
2018-02-06T00:18:34.382Z,24.60
2018-02-06T00:18:58.133Z,25.12
2018-02-06T00:19:22.185Z,27.73
2018-02-06T00:19:45.933Z,25.88
2018-02-06T00:20:10.075Z,24.45
2018-02-06T00:20:33.912Z,24.70
2018-02-06T00:20:57.940Z,25.20
2018-02-06T00:21:21.824Z,24.27
2018-02-06T00:21:45.299Z,26.73
2018-02-06T00:22:08.414Z,28.23
2018-02-06T00:22:43.260Z,27.05
2018-02-06T00:23:07.009Z,25.92
2018-02-06T00:23:30.758Z,27.08
2018-02-06T00:23:54.505Z,26.60
2018-02-06T00:24:18.475Z,23.90
2018-02-06T00:24:42.250Z,25.70
2018-02-06T00:25:06.295Z,24.60
2018-02-06T00:25:29.986Z,24.20
2018-02-06T00:25:53.814Z,23.02
2018-02-06T00:26:18.088Z,23.55
2018-02-06T00:26:42.360Z,22.90
2018-02-06T00:27:06.152Z,24.02
2018-02-06T00:27:29.969Z,24.98
2018-02-06T00:27:54.006Z,24.67
2018-02-06T00:28:17.887Z,24.63
2018-02-06T00:28:41.369Z,24.93
2018-02-06T00:29:05.393Z,24.85
2018-02-06T00:29:29.275Z,26.10
2018-02-06T00:29:53.017Z,24.80
2018-02-06T00:30:16.802Z,23.38
2018-02-06T00:30:40.551Z,23.02
2018-02-06T00:31:04.488Z,24.48
2018-02-06T00:31:28.241Z,26.42
2018-02-06T00:31:51.783Z,26.40
2018-02-06T00:32:15.548Z,27.37
2018-02-06T00:32:39.430Z,27.02
2018-02-06T00:33:03.177Z,25.67
2018-02-06T00:33:26.955Z,25.95
2018-02-06T00:33:50.410Z,24.80
2018-02-06T00:34:14.169Z,25.88
2018-02-06T00:34:37.918Z,24.05
2018-02-06T00:35:01.998Z,22.87
2018-02-06T00:35:25.825Z,24.85
2018-02-06T00:35:49.785Z,24.90
2018-02-06T00:36:13.540Z,23.85
2018-02-06T00:36:37.062Z,25.88
2018-02-06T00:37:00.868Z,24.92
2018-02-06T00:37:24.630Z,22.45
2018-02-06T00:37:48.425Z,22.25
2018-02-06T00:38:12.505Z,24.45
2018-02-06T00:38:36.321Z,25.85
2018-02-06T00:39:00.368Z,27.05
2018-02-06T00:39:24.169Z,26.37
2018-02-06T00:39:48.161Z,25.40
2018-02-06T00:40:12.297Z,24.85
2018-02-06T00:40:36.250Z,22.15
2018-02-06T00:41:00.046Z,22.85
2018-02-06T00:41:23.843Z,25.30
2018-02-06T00:41:47.308Z,26.30
2018-02-06T00:42:14.469Z,23.60
2018-02-06T00:42:38.290Z,21.67
2018-02-06T00:43:02.065Z,21.70
2018-02-06T00:43:25.891Z,24.70
2018-02-06T00:43:49.648Z,24.45
2018-02-06T00:44:13.416Z,23.48
2018-02-06T00:44:36.865Z,23.48
2018-02-06T00:45:00.685Z,23.92
2018-02-06T00:45:24.136Z,25.62
2018-02-06T00:45:47.883Z,24.33
2018-02-06T00:46:11.662Z,24.42
2018-02-06T00:46:35.409Z,22.98
2018-02-06T00:46:59.206Z,22.37
2018-02-06T00:47:22.996Z,23.27
2018-02-06T00:47:46.473Z,22.80
2018-02-06T00:48:09.547Z,23.33
2018-02-06T00:48:33.302Z,23.12
2018-02-06T00:48:57.539Z,24.35
2018-02-06T00:49:21.016Z,25.08
2018-02-06T00:49:44.777Z,24.23
2018-02-06T00:50:08.846Z,24.20
2018-02-06T00:50:32.638Z,25.33
2018-02-06T00:50:56.730Z,26.80
2018-02-06T00:51:20.501Z,24.87
2018-02-06T00:51:44.565Z,24.48
2018-02-06T00:52:08.325Z,23.23
2018-02-06T00:52:31.869Z,22.37
2018-02-06T00:52:55.617Z,22.42
2018-02-06T00:53:19.393Z,22.58
2018-02-06T00:53:43.207Z,24.27
2018-02-06T00:54:07.282Z,24.67
2018-02-06T00:54:31.052Z,24.02
2018-02-06T00:54:55.086Z,23.80
2018-02-06T00:55:19.116Z,23.90
2018-02-06T00:55:42.871Z,24.10
2018-02-06T00:56:06.323Z,24.48
2018-02-06T00:56:30.078Z,24.50
2018-02-06T00:56:53.874Z,22.85
2018-02-06T00:57:17.360Z,23.70
2018-02-06T00:57:41.194Z,26.10
2018-02-06T00:58:04.971Z,26.65
2018-02-06T00:58:28.705Z,27.98
2018-02-06T00:58:52.461Z,25.95
2018-02-06T00:59:15.906Z,26.10
2018-02-06T00:59:39.658Z,27.67
2018-02-06T01:00:03.443Z,28.10
2018-02-06T01:00:27.976Z,27.10
2018-02-06T01:00:51.725Z,25.17
2018-02-06T01:01:15.468Z,26.33
2018-02-06T01:01:39.253Z,27.85
2018-02-06T01:02:03.282Z,28.60
2018-02-06T01:02:27.038Z,29.77
2018-02-06T01:02:50.558Z,32.08
2018-02-06T01:03:14.303Z,29.50
2018-02-06T01:03:38.114Z,27.80
2018-02-06T01:04:01.878Z,28.90
2018-02-06T01:04:25.981Z,27.20
2018-02-06T01:04:49.780Z,26.52
2018-02-06T01:05:13.806Z,23.92
2018-02-06T01:05:37.281Z,24.80
2018-02-06T01:06:01.036Z,26.05
2018-02-06T01:06:24.883Z,27.33
2018-02-06T01:06:48.657Z,28.05
2018-02-06T01:07:12.402Z,28.15
2018-02-06T01:07:35.860Z,26.37
2018-02-06T01:07:59.681Z,27.27
2018-02-06T01:08:23.409Z,29.60
2018-02-06T01:08:47.163Z,29.20
2018-02-06T01:09:10.614Z,28.95
2018-02-06T01:09:34.377Z,26.92
2018-02-06T01:09:58.186Z,26.62
2018-02-06T01:10:21.996Z,26.45
2018-02-06T01:10:46.060Z,26.60
2018-02-06T01:11:10.063Z,27.70
2018-02-06T01:11:33.918Z,28.20
2018-02-06T01:11:57.964Z,27.40
2018-02-06T01:12:21.743Z,26.55
2018-02-06T01:12:45.218Z,26.65
2018-02-06T01:13:08.981Z,25.50
2018-02-06T01:13:32.771Z,25.65
2018-02-06T01:13:56.573Z,28.30
2018-02-06T01:14:20.625Z,28.85
2018-02-06T01:14:44.080Z,27.37
2018-02-06T01:15:07.828Z,28.00
2018-02-06T01:15:31.589Z,27.77
2018-02-06T01:15:55.331Z,28.83
2018-02-06T01:16:19.350Z,28.80
2018-02-06T01:16:43.406Z,29.52
2018-02-06T01:17:07.146Z,29.25
2018-02-06T01:17:30.618Z,27.70
2018-02-06T01:17:54.436Z,27.37
2018-02-06T01:18:18.247Z,28.10
2018-02-06T01:18:42.023Z,30.40
2018-02-06T01:19:05.712Z,29.33
2018-02-06T01:19:29.485Z,27.60
2018-02-06T01:19:53.327Z,27.80
2018-02-06T01:20:17.076Z,25.80
2018-02-06T01:20:40.824Z,24.08
2018-02-06T01:21:04.560Z,26.27
2018-02-06T01:21:28.009Z,27.27
2018-02-06T01:21:51.757Z,29.73
2018-02-06T01:22:15.560Z,31.23
2018-02-06T01:22:39.601Z,29.92
2018-02-06T01:23:03.382Z,29.25
2018-02-06T01:23:26.852Z,30.02
2018-02-06T01:23:50.622Z,30.23
2018-02-06T01:24:14.363Z,28.83
2018-02-06T01:24:38.205Z,30.00
2018-02-06T01:25:02.269Z,29.00
2018-02-06T01:25:26.065Z,27.73
2018-02-06T01:25:49.532Z,26.75
2018-02-06T01:26:13.289Z,26.58
2018-02-06T01:26:37.102Z,28.10
2018-02-06T01:27:01.058Z,27.85
2018-02-06T01:27:24.912Z,27.77
2018-02-06T01:27:49.077Z,28.15
2018-02-06T01:28:12.857Z,31.40
2018-02-06T01:28:36.691Z,29.98
2018-02-06T01:29:00.758Z,27.30
2018-02-06T01:29:24.503Z,27.17
2018-02-06T01:29:47.952Z,28.67
2018-02-06T01:30:11.822Z,30.00
2018-02-06T01:30:35.560Z,28.35
2018-02-06T01:30:59.304Z,27.98
2018-02-06T01:31:22.755Z,27.05
2018-02-06T01:31:46.516Z,27.80
2018-02-06T01:32:10.252Z,30.80
2018-02-06T01:32:34.278Z,32.72
2018-02-06T01:32:58.062Z,29.73
2018-02-06T01:33:21.545Z,28.27
2018-02-06T01:33:45.337Z,28.80
2018-02-06T01:34:09.065Z,27.80
2018-02-06T01:34:32.820Z,28.85
2018-02-06T01:34:56.288Z,27.87
2018-02-06T01:35:20.012Z,27.80
2018-02-06T01:35:43.743Z,27.67
2018-02-06T01:36:07.768Z,27.25
2018-02-06T01:36:31.545Z,28.58
2018-02-06T01:36:54.988Z,29.08
2018-02-06T01:37:18.728Z,29.25
2018-02-06T01:37:42.506Z,29.50
2018-02-06T01:38:06.345Z,29.83
2018-02-06T01:38:29.902Z,30.30
2018-02-06T01:38:53.762Z,28.73
2018-02-06T01:39:17.521Z,27.37
2018-02-06T01:39:41.266Z,25.17
2018-02-06T01:40:05.335Z,25.85
2018-02-06T01:40:29.126Z,26.92
2018-02-06T01:40:53.149Z,28.70
2018-02-06T01:41:17.001Z,27.70
2018-02-06T01:41:41.060Z,27.73
2018-02-06T01:42:04.812Z,27.45
2018-02-06T01:42:28.253Z,27.62
2018-02-06T01:42:52.018Z,25.88
2018-02-06T01:43:15.813Z,25.92
2018-02-06T01:43:39.856Z,26.02
2018-02-06T01:44:03.686Z,27.25
2018-02-06T01:44:27.696Z,26.58
2018-02-06T01:44:51.443Z,28.48
2018-02-06T01:45:14.891Z,28.75
2018-02-06T01:45:38.625Z,29.73
2018-02-06T01:46:02.506Z,27.70
2018-02-06T01:46:26.266Z,26.85
2018-02-06T01:46:49.794Z,29.45
2018-02-06T01:47:13.537Z,31.25
2018-02-06T01:47:37.298Z,29.55
2018-02-06T01:48:01.053Z,26.90
2018-02-06T01:48:25.089Z,25.90
2018-02-06T01:48:49.113Z,25.77
2018-02-06T01:49:12.877Z,28.10
2018-02-06T01:49:36.403Z,27.80
2018-02-06T01:50:05.656Z,26.08
2018-02-06T01:50:29.301Z,27.57
2018-02-06T01:50:52.965Z,27.25
2018-02-06T01:51:16.804Z,28.42
2018-02-06T01:51:40.564Z,25.83
2018-02-06T01:52:04.234Z,26.33
2018-02-06T01:52:28.037Z,26.92
2018-02-06T01:52:51.769Z,28.77
2018-02-06T01:53:15.539Z,29.05
2018-02-06T01:53:39.277Z,30.17
2018-02-06T01:54:02.741Z,27.98
2018-02-06T01:54:26.516Z,27.25
2018-02-06T01:54:50.252Z,26.58
2018-02-06T01:55:14.272Z,26.02
2018-02-06T01:55:38.050Z,28.40
2018-02-06T01:56:01.528Z,28.00
2018-02-06T01:56:25.298Z,27.95
2018-02-06T01:56:49.042Z,26.98
2018-02-06T01:57:12.490Z,27.40
2018-02-06T01:57:36.282Z,27.60
2018-02-06T01:58:00.069Z,28.02
2018-02-06T01:58:23.821Z,30.02
2018-02-06T01:58:47.880Z,31.10
2018-02-06T01:59:11.661Z,28.23
2018-02-06T01:59:35.712Z,28.77
2018-02-06T01:59:59.532Z,28.08
2018-02-06T02:00:23.637Z,27.83
2018-02-06T02:00:47.403Z,26.55
2018-02-06T02:01:10.896Z,27.58
2018-02-06T02:01:34.641Z,26.92
2018-02-06T02:01:58.434Z,28.90
2018-02-06T02:02:22.202Z,30.05
2018-02-06T02:02:45.661Z,28.00
2018-02-06T02:03:09.397Z,25.88
2018-02-06T02:03:33.146Z,25.90
2018-02-06T02:03:57.176Z,26.65
2018-02-06T02:04:21.160Z,24.73
2018-02-06T02:04:44.960Z,26.42
2018-02-06T02:05:09.015Z,27.48
2018-02-06T02:05:32.466Z,27.07
2018-02-06T02:05:56.208Z,27.58
2018-02-06T02:06:20.162Z,28.42
2018-02-06T02:06:43.897Z,28.98
2018-02-06T02:07:07.646Z,29.85
2018-02-06T02:07:31.136Z,28.17
2018-02-06T02:07:54.868Z,28.17
2018-02-06T02:08:18.640Z,28.58
2018-02-06T02:08:42.678Z,29.73
2018-02-06T02:09:06.081Z,31.73
2018-02-06T02:09:30.047Z,32.30
2018-02-06T02:09:53.848Z,31.02
2018-02-06T02:10:17.616Z,27.48
2018-02-06T02:10:41.375Z,29.65
2018-02-06T02:11:04.866Z,31.73
2018-02-06T02:11:28.600Z,31.75
2018-02-06T02:11:52.335Z,26.77
2018-02-06T02:12:16.093Z,25.40
2018-02-06T02:12:40.173Z,28.98
2018-02-06T02:13:03.913Z,29.70
2018-02-06T02:13:27.152Z,28.83
2018-02-06T02:13:50.893Z,27.60
2018-02-06T02:14:14.913Z,28.20
2018-02-06T02:14:38.931Z,27.10
2018-02-06T02:15:02.747Z,25.30
2018-02-06T02:15:26.778Z,25.52
2018-02-06T02:15:50.825Z,27.83
2018-02-06T02:16:14.600Z,28.75
2018-02-06T02:16:38.619Z,28.77
2018-02-06T02:17:02.659Z,29.33
2018-02-06T02:17:26.416Z,28.05
2018-02-06T02:17:49.876Z,25.35
2018-02-06T02:18:13.620Z,26.92
2018-02-06T02:18:37.364Z,28.52
2018-02-06T02:19:01.422Z,28.17
2018-02-06T02:19:24.919Z,28.12
2018-02-06T02:19:48.737Z,27.80
2018-02-06T02:20:12.600Z,28.60
2018-02-06T02:20:36.364Z,30.15
2018-02-06T02:21:00.109Z,29.92
2018-02-06T02:21:23.869Z,27.73
2018-02-06T02:21:47.321Z,28.52
2018-02-06T02:22:11.110Z,30.70
2018-02-06T02:22:34.926Z,30.33
2018-02-06T02:22:58.690Z,30.23
2018-02-06T02:23:22.180Z,29.35
2018-02-06T02:23:45.939Z,28.75
2018-02-06T02:24:09.726Z,28.27
2018-02-06T02:24:33.473Z,27.48
2018-02-06T02:24:56.923Z,27.30
2018-02-06T02:25:20.697Z,27.08
2018-02-06T02:25:44.133Z,25.77
2018-02-06T02:26:07.865Z,26.50
2018-02-06T02:26:31.670Z,29.10
2018-02-06T02:26:55.424Z,28.45
2018-02-06T02:27:19.156Z,28.35
2018-02-06T02:27:43.210Z,26.75
2018-02-06T02:28:07.235Z,26.23
2018-02-06T02:28:30.981Z,28.70
2018-02-06T02:28:54.430Z,30.17
2018-02-06T02:29:18.180Z,29.30
2018-02-06T02:29:41.916Z,27.75
2018-02-06T02:30:05.968Z,26.60
2018-02-06T02:30:29.508Z,27.37
2018-02-06T02:30:53.259Z,28.30
2018-02-06T02:31:17.037Z,27.95
2018-02-06T02:31:40.787Z,28.83
2018-02-06T02:32:04.536Z,29.85
2018-02-06T02:32:28.271Z,30.58
2018-02-06T02:32:52.021Z,30.02
2018-02-06T02:33:15.848Z,29.20
2018-02-06T02:33:39.606Z,28.25
2018-02-06T02:34:03.440Z,28.27
2018-02-06T02:34:27.496Z,30.23
2018-02-06T02:34:51.254Z,28.92
2018-02-06T02:35:15.308Z,29.85
2018-02-06T02:35:38.794Z,28.27
2018-02-06T02:36:02.649Z,27.17
2018-02-06T02:36:26.473Z,27.00
2018-02-06T02:36:50.264Z,28.65
2018-02-06T02:37:14.016Z,27.75
2018-02-06T02:37:38.073Z,27.60
2018-02-06T02:38:01.841Z,29.95
2018-02-06T02:38:25.878Z,27.20
2018-02-06T02:38:49.901Z,26.92
2018-02-06T02:39:13.738Z,26.65
2018-02-06T02:39:37.798Z,29.08
2018-02-06T02:40:01.536Z,30.70
2018-02-06T02:40:24.972Z,30.55
2018-02-06T02:40:48.747Z,27.83
2018-02-06T02:41:12.496Z,26.90
2018-02-06T02:41:36.505Z,29.83
2018-02-06T04:38:46.520Z,34.58
2018-02-06T04:39:10.272Z,32.40
2018-02-06T04:39:34.016Z,33.00
2018-02-06T04:39:57.500Z,34.20
2018-02-06T04:40:21.366Z,33.28
2018-02-06T04:40:45.116Z,36.15
2018-02-06T04:41:08.868Z,35.65
2018-02-06T04:41:32.900Z,35.10
2018-02-06T04:41:56.746Z,35.58
2018-02-06T04:42:20.761Z,34.13
2018-02-06T04:42:44.205Z,34.10
2018-02-06T04:43:08.017Z,36.50
2018-02-06T04:43:31.796Z,36.88
2018-02-06T04:43:55.524Z,33.65
2018-02-06T04:44:19.029Z,32.60
2018-02-06T04:44:42.813Z,34.95
2018-02-06T04:45:06.366Z,33.95
2018-02-06T04:45:29.821Z,34.33
2018-02-06T04:45:53.573Z,35.45
2018-02-06T04:46:17.354Z,34.53
2018-02-06T04:46:41.099Z,33.60
2018-02-06T04:47:05.139Z,33.22
2018-02-06T04:47:28.937Z,33.67
2018-02-06T04:47:52.960Z,30.80
2018-02-06T04:48:16.705Z,30.12
2018-02-06T04:48:40.486Z,32.55
2018-02-06T04:49:04.058Z,32.70
2018-02-06T04:49:27.814Z,34.13
2018-02-06T04:49:51.370Z,31.80
2018-02-06T04:50:15.132Z,32.15
2018-02-06T04:50:38.912Z,35.30
2018-02-06T04:51:02.686Z,36.95
2018-02-06T04:51:26.434Z,32.97
2018-02-06T04:51:49.921Z,31.23
2018-02-06T04:52:13.706Z,30.62
2018-02-06T04:52:37.665Z,31.40
2018-02-06T04:53:01.401Z,32.08
2018-02-06T04:53:25.158Z,32.63
2018-02-06T04:53:48.989Z,34.05
2018-02-06T04:54:13.056Z,34.80
2018-02-06T04:54:36.833Z,32.15
2018-02-06T04:54:59.959Z,32.17
2018-02-06T04:55:23.740Z,31.05
2018-02-06T04:55:47.252Z,30.37
2018-02-06T04:56:10.996Z,32.83
2018-02-06T04:56:34.780Z,31.62
2018-02-06T04:56:58.520Z,30.58
2018-02-06T04:57:22.572Z,30.45
2018-02-06T04:57:46.024Z,30.57
2018-02-06T04:58:09.775Z,32.30
2018-02-06T04:58:33.569Z,32.03
2018-02-06T04:58:57.368Z,29.83
2018-02-06T04:59:21.152Z,29.25
2018-02-06T04:59:45.207Z,30.20
2018-02-06T05:00:08.672Z,31.37
2018-02-06T05:00:32.429Z,31.42
2018-02-06T05:00:56.392Z,31.50
2018-02-06T05:01:20.145Z,30.00
2018-02-06T05:01:43.970Z,29.83
2018-02-06T05:02:07.760Z,29.30
2018-02-06T05:02:31.817Z,32.45
2018-02-06T05:02:55.317Z,32.87
2018-02-06T05:03:19.312Z,32.33
2018-02-06T05:03:43.048Z,30.33
2018-02-06T05:04:06.805Z,27.20
2018-02-06T05:04:30.560Z,28.38
2018-02-06T05:04:54.350Z,30.75
2018-02-06T05:05:17.796Z,29.45
2018-02-06T05:05:41.548Z,31.08
2018-02-06T05:06:05.295Z,30.95
2018-02-06T05:48:06.879Z,32.55
2018-02-06T05:48:30.959Z,31.98
2018-02-06T05:48:54.725Z,30.92
2018-02-06T05:49:18.192Z,32.45
2018-02-06T05:49:41.985Z,32.20
2018-02-06T05:50:05.753Z,32.40
2018-02-06T05:50:29.508Z,30.60
2018-02-06T05:50:52.985Z,30.62
2018-02-06T05:51:16.740Z,31.27
2018-02-06T05:51:40.476Z,31.95
2018-02-06T05:52:04.448Z,32.42
2018-02-06T05:52:28.200Z,29.83
2018-02-06T05:52:52.335Z,31.85
2018-02-06T05:53:16.184Z,31.10
2018-02-06T05:53:39.963Z,30.60
2018-02-06T05:54:03.497Z,32.33
2018-02-06T05:54:27.332Z,34.88
2018-02-06T05:54:51.186Z,33.15
2018-02-06T05:55:15.027Z,29.95
2018-02-06T05:55:38.775Z,32.20
2018-02-06T05:56:02.226Z,31.00
2018-02-06T05:56:26.049Z,29.02
2018-02-06T05:56:49.842Z,30.48
2018-02-06T05:57:13.581Z,32.30
2018-02-06T05:57:37.364Z,33.75
2018-02-06T05:58:01.441Z,34.33
2018-02-06T05:58:25.228Z,34.65
2018-02-06T05:58:49.260Z,32.47
2018-02-06T05:59:13.277Z,29.65
2018-02-06T05:59:37.042Z,30.60
2018-02-06T06:00:00.501Z,31.27
2018-02-06T06:00:24.270Z,33.63
2018-02-06T06:00:48.096Z,30.02
2018-02-06T06:01:11.866Z,29.98
2018-02-06T06:01:35.900Z,30.88
2018-02-06T06:01:59.668Z,34.92
2018-02-06T06:02:23.825Z,33.53
2018-02-06T06:02:47.673Z,31.48
2018-02-06T06:03:11.420Z,29.27
2018-02-06T06:03:35.064Z,29.42
2018-02-06T06:03:58.697Z,31.35
2018-02-06T06:04:22.436Z,31.73
2018-02-06T06:04:46.188Z,29.52
2018-02-06T06:05:09.662Z,28.12
2018-02-06T06:05:33.518Z,30.95
2018-02-06T06:05:57.418Z,32.15
2018-02-06T06:06:21.176Z,29.83
2018-02-06T06:06:44.928Z,27.73
2018-02-06T06:07:08.385Z,28.05
2018-02-06T06:07:32.125Z,30.08
2018-02-06T06:07:55.889Z,32.03
2018-02-06T06:08:19.741Z,30.05
2018-02-06T06:08:43.878Z,30.10
2018-02-06T06:09:07.613Z,29.00
2018-02-06T06:09:31.701Z,32.03
2018-02-06T06:09:55.489Z,33.38
2018-02-06T06:10:19.625Z,34.65
2018-02-06T06:10:43.385Z,33.22
2018-02-06T06:11:07.471Z,30.83
2018-02-06T06:11:31.241Z,30.52
2018-02-06T06:11:55.367Z,31.60
2018-02-06T06:12:19.228Z,33.53
2018-02-06T06:12:42.678Z,32.10
2018-02-06T06:13:06.432Z,31.45
2018-02-06T06:13:30.200Z,32.75
2018-02-06T06:13:54.027Z,34.20
2018-02-06T06:14:17.807Z,30.90
2018-02-06T06:14:41.830Z,28.95
2018-02-06T06:15:05.920Z,27.60
2018-02-06T06:15:29.657Z,27.52
2018-02-06T06:15:53.686Z,28.00
2018-02-06T06:16:17.210Z,29.07
2018-02-06T06:16:40.933Z,28.87
2018-02-06T06:17:04.513Z,29.12
2018-02-06T06:17:28.063Z,31.10
2018-02-06T06:17:51.877Z,30.90
2018-02-06T06:18:15.617Z,30.85
2018-02-06T06:18:39.370Z,30.77
2018-02-06T06:19:03.136Z,32.53
2018-02-06T06:19:27.172Z,31.65
2018-02-06T06:19:50.620Z,34.23
2018-02-06T06:20:14.566Z,35.40
2018-02-06T06:20:38.300Z,34.30
2018-02-06T06:21:02.041Z,33.65
2018-02-06T06:21:25.796Z,36.15
2018-02-06T06:21:49.841Z,35.28
2018-02-06T06:22:13.593Z,33.13
2018-02-06T06:22:37.115Z,30.35
2018-02-06T06:23:00.974Z,31.30
2018-02-06T06:23:24.718Z,32.35
2018-02-06T06:23:48.498Z,32.95
2018-02-06T06:24:12.560Z,31.85
2018-02-06T06:24:36.344Z,34.08
2018-02-06T06:25:00.382Z,33.95
2018-02-06T06:25:23.829Z,33.10
2018-02-06T06:25:47.592Z,34.60
2018-02-06T06:26:11.430Z,35.20
2018-02-06T06:26:35.170Z,33.38
2018-02-06T06:26:58.974Z,33.08
2018-02-06T06:27:23.016Z,30.45
2018-02-06T06:27:46.472Z,31.00
2018-02-06T06:28:10.224Z,32.45
2018-02-06T06:28:33.972Z,33.03
2018-02-06T06:28:57.728Z,32.75
2018-02-06T06:29:21.793Z,32.92
2018-02-06T06:29:45.613Z,32.67
2018-02-06T06:30:09.321Z,29.80
2018-02-06T06:30:33.114Z,28.75
2018-02-06T06:30:56.922Z,30.83
2018-02-06T06:31:20.962Z,30.90
2018-02-06T06:31:44.693Z,29.20
2018-02-06T06:32:08.485Z,29.17
2018-02-06T06:32:32.243Z,30.85
2018-02-06T06:32:56.268Z,34.65
2018-02-06T06:33:20.037Z,32.65
2018-02-06T06:33:44.096Z,32.35
2018-02-06T06:34:08.150Z,34.58
2018-02-06T06:34:31.757Z,38.63
2018-02-06T06:34:55.259Z,35.25
2018-02-06T06:35:18.995Z,30.42
2018-02-06T06:35:42.741Z,29.30
2018-02-06T06:36:06.886Z,31.12
2018-02-06T06:36:30.670Z,33.05
2018-02-06T06:36:54.275Z,30.77
2018-02-06T06:37:18.067Z,29.98
2018-02-06T06:37:41.845Z,31.75
2018-02-06T06:38:05.583Z,31.92
2018-02-06T06:38:29.341Z,30.58
2018-02-06T06:38:53.407Z,28.20
2018-02-06T06:39:17.156Z,28.20
2018-02-06T06:39:40.799Z,28.48
2018-02-06T06:40:04.687Z,29.63
2018-02-06T06:40:28.529Z,29.40
2018-02-06T06:40:52.256Z,32.67
2018-02-06T06:41:16.013Z,34.65
2018-02-06T06:41:39.853Z,31.17
2018-02-06T06:42:03.885Z,29.65
2018-02-06T06:42:27.339Z,30.50
2018-02-06T06:42:51.145Z,35.85
2018-02-06T06:43:14.712Z,36.55
2018-02-06T06:43:38.200Z,35.40
2018-02-06T06:44:01.972Z,32.25
2018-02-06T06:44:25.879Z,30.75
2018-02-06T06:44:49.705Z,30.90
2018-02-06T06:45:13.463Z,33.10
2018-02-06T06:45:37.256Z,32.28
2018-02-06T06:46:00.746Z,30.95
2018-02-06T06:46:24.548Z,29.20
2018-02-06T06:46:48.353Z,28.67
2018-02-06T06:47:12.105Z,33.78
2018-02-06T06:47:36.199Z,36.60
2018-02-06T06:47:59.997Z,36.80
2018-02-06T06:48:23.470Z,34.73
2018-02-06T06:48:47.408Z,31.10
2018-02-06T06:49:11.160Z,31.37
2018-02-06T06:49:35.097Z,32.67
2018-02-06T06:49:58.882Z,33.83
2018-02-06T06:50:22.634Z,35.65
2018-02-06T06:50:46.125Z,35.20
2018-02-06T06:51:09.873Z,32.92
2018-02-06T06:51:33.711Z,33.35
2018-02-06T06:51:57.476Z,35.72
2018-02-06T06:52:21.452Z,35.85
2018-02-06T06:52:45.320Z,37.85
2018-02-06T06:53:08.796Z,39.17
2018-02-06T06:53:32.597Z,35.97
2018-02-06T06:53:56.371Z,32.85
2018-02-06T06:54:20.193Z,32.58
2018-02-06T06:54:43.953Z,34.45
2018-02-06T06:55:08.024Z,39.10
2018-02-06T06:55:31.793Z,37.58
2018-02-06T06:55:55.269Z,35.60
2018-02-06T06:56:19.021Z,35.15
2018-02-06T06:56:42.849Z,31.80
2018-02-06T06:57:06.709Z,34.72
2018-02-06T06:57:30.514Z,37.03
2018-02-06T06:57:54.560Z,35.40
2018-02-06T06:58:18.367Z,35.85
2018-02-06T06:58:42.423Z,36.30
2018-02-06T06:59:06.192Z,37.65
2018-02-06T06:59:29.697Z,37.00
2018-02-06T06:59:53.480Z,35.35
2018-02-06T07:00:17.088Z,37.40
2018-02-06T07:00:40.556Z,36.78
2018-02-06T07:01:04.362Z,37.60
2018-02-06T07:01:28.151Z,38.88
2018-02-06T07:01:51.908Z,39.13
2018-02-06T07:02:15.955Z,35.10
2018-02-06T07:02:39.816Z,36.72
2018-02-06T07:03:03.863Z,39.75
2018-02-06T07:03:27.622Z,40.78
2018-02-06T07:03:51.073Z,38.38
2018-02-06T07:04:14.847Z,34.15
2018-02-06T07:04:38.580Z,32.25
2018-02-06T07:05:02.319Z,33.40
2018-02-06T07:05:26.397Z,35.42
2018-02-06T07:05:50.425Z,34.58
2018-02-06T07:06:14.172Z,34.92
2018-02-06T07:06:37.679Z,36.13
2018-02-06T07:07:01.428Z,38.33
2018-02-06T07:07:25.181Z,42.88
2018-02-06T07:07:48.631Z,44.27
2018-02-06T07:08:12.416Z,45.03
2018-02-06T07:08:36.198Z,37.55
2018-02-06T07:09:00.029Z,35.38
2018-02-06T07:09:23.780Z,33.97
2018-02-06T07:09:47.811Z,34.90
2018-02-06T07:10:11.836Z,34.00
2018-02-06T07:10:35.604Z,34.70
2018-02-06T07:10:59.624Z,34.38
2018-02-06T07:11:23.639Z,33.00
2018-02-06T07:11:47.479Z,31.83
2018-02-06T07:12:11.494Z,29.05
2018-02-06T07:12:34.963Z,31.03
2018-02-06T07:12:58.556Z,34.67
2018-02-06T07:13:22.379Z,37.10
2018-02-06T07:13:46.139Z,38.83
2018-02-06T07:14:10.180Z,38.92
2018-02-06T07:14:33.664Z,35.40
2018-02-06T07:14:57.432Z,33.40
2018-02-06T07:15:21.224Z,33.58
2018-02-06T07:15:45.117Z,33.83
2018-02-06T07:16:08.676Z,35.47
2018-02-06T07:16:32.464Z,33.95
2018-02-06T07:16:55.966Z,39.95
2018-02-06T07:17:19.779Z,40.75
2018-02-06T07:17:43.537Z,38.58
2018-02-06T07:18:06.992Z,38.25
2018-02-06T07:18:30.748Z,36.33
2018-02-06T07:18:54.521Z,36.97
2018-02-06T07:19:18.002Z,36.27
2018-02-06T07:19:41.735Z,38.67
2018-02-06T07:20:04.820Z,37.58
2018-02-06T07:20:28.572Z,35.28
2018-02-06T07:20:52.165Z,36.58
2018-02-06T07:21:16.189Z,37.35
2018-02-06T07:21:39.642Z,36.27
2018-02-06T07:22:03.592Z,36.37
2018-02-06T07:22:27.344Z,39.30
2018-02-06T07:22:51.092Z,37.72
2018-02-06T07:23:14.826Z,34.25
2018-02-06T07:23:38.884Z,37.38
2018-02-06T07:24:02.656Z,37.50
2018-02-06T07:24:26.684Z,36.35
2018-02-06T07:24:50.714Z,37.53
2018-02-06T07:25:14.483Z,39.67
2018-02-06T07:25:38.543Z,39.15
2018-02-06T07:26:02.384Z,37.63
2018-02-06T07:26:26.489Z,35.75
2018-02-06T07:26:50.263Z,37.80
2018-02-06T07:27:14.304Z,36.03
2018-02-06T07:27:38.098Z,34.08
2018-02-06T07:28:01.579Z,31.83
2018-02-06T07:28:25.317Z,31.98
2018-02-06T07:28:49.107Z,33.33
2018-02-06T07:29:12.927Z,33.33
2018-02-06T07:29:37.019Z,33.47
2018-02-06T07:30:00.771Z,32.63
2018-02-06T07:30:24.896Z,34.95
2018-02-06T07:30:48.652Z,36.33
2018-02-06T07:31:12.717Z,38.97
2018-02-06T07:31:36.477Z,38.03
2018-02-06T07:32:00.534Z,38.35
2018-02-06T07:32:24.656Z,36.75
2018-02-06T07:32:48.404Z,37.65
2018-02-06T07:33:12.466Z,35.88
2018-02-06T07:33:36.237Z,34.00
2018-02-06T07:34:00.337Z,36.40
2018-02-06T07:34:24.284Z,37.33
2018-02-06T07:34:48.243Z,37.10
2018-02-06T07:35:12.092Z,35.70
2018-02-06T07:35:36.140Z,34.22
2018-02-06T07:35:59.902Z,32.20
2018-02-06T07:36:24.020Z,34.60
2018-02-06T07:36:47.768Z,37.78
2018-02-06T07:37:11.909Z,40.63
2018-02-06T07:37:35.639Z,34.28
2018-02-06T07:37:59.721Z,36.55
2018-02-06T07:38:23.488Z,41.35
2018-02-06T07:38:47.009Z,43.13
2018-02-06T07:39:10.784Z,38.13
2018-02-06T07:39:34.542Z,40.08
2018-02-06T07:39:58.301Z,40.35
2018-02-06T07:40:22.349Z,38.38
2018-02-06T07:40:46.107Z,36.45
2018-02-06T07:41:10.188Z,64.57
2018-02-06T07:41:33.956Z,72.75
2018-02-06T07:41:57.408Z,67.15
2018-02-06T07:42:21.145Z,50.78
2018-02-06T07:42:44.933Z,48.90
2018-02-06T07:43:08.744Z,43.03
2018-02-06T07:43:32.300Z,44.10
2018-02-06T07:43:55.871Z,35.88
2018-02-06T07:44:19.644Z,36.33
2018-02-06T07:44:43.686Z,37.28
2018-02-06T07:45:07.623Z,42.88